sensor_id;sensor_type;location;lat;lon;timestamp;P1;durP1;ratioP1;P2;durP2;ratioP2
7150;SDS011;3617;48.836;9.172;2022-11-02T00:01:48;4.10;;;2.97;;
7150;SDS011;3617;48.836;9.172;2022-11-02T00:04:14;4.13;;;2.67;;
7150;SDS011;3617;48.836;9.172;2022-11-02T00:06:40;3.80;;;2.47;;
7150;SDS011;3617;48.836;9.172;2022-11-02T00:09:06;4.03;;;2.90;;
7150;SDS011;3617;48.836;9.172;2022-11-02T00:11:32;5.17;;;2.70;;
7150;SDS011;3617;48.836;9.172;2022-11-02T00:13:58;5.57;;;3.20;;
7150;SDS011;3617;48.836;9.172;2022-11-02T00:16:24;7.00;;;3.10;;
7150;SDS011;3617;48.836;9.172;2022-11-02T00:18:51;5.63;;;3.00;;
7150;SDS011;3617;48.836;9.172;2022-11-02T00:21:19;4.13;;;2.73;;
7150;SDS011;3617;48.836;9.172;2022-11-02T00:23:46;6.40;;;3.43;;
7150;SDS011;3617;48.836;9.172;2022-11-02T00:26:12;4.37;;;2.57;;
7150;SDS011;3617;48.836;9.172;2022-11-02T00:28:39;6.80;;;2.90;;
7150;SDS011;3617;48.836;9.172;2022-11-02T00:31:05;5.67;;;3.10;;
7150;SDS011;3617;48.836;9.172;2022-11-02T00:33:31;7.03;;;3.47;;
7150;SDS011;3617;48.836;9.172;2022-11-02T00:35:57;6.83;;;2.90;;
7150;SDS011;3617;48.836;9.172;2022-11-02T00:38:23;4.57;;;3.20;;
7150;SDS011;3617;48.836;9.172;2022-11-02T00:40:49;5.07;;;3.23;;
7150;SDS011;3617;48.836;9.172;2022-11-02T00:43:15;6.50;;;3.20;;
7150;SDS011;3617;48.836;9.172;2022-11-02T00:45:41;4.40;;;3.10;;
7150;SDS011;3617;48.836;9.172;2022-11-02T00:48:07;4.03;;;2.90;;
7150;SDS011;3617;48.836;9.172;2022-11-02T00:50:33;3.23;;;2.70;;
7150;SDS011;3617;48.836;9.172;2022-11-02T00:52:59;5.13;;;3.13;;
7150;SDS011;3617;48.836;9.172;2022-11-02T00:55:25;6.50;;;3.00;;
7150;SDS011;3617;48.836;9.172;2022-11-02T00:57:51;3.90;;;2.67;;
7150;SDS011;3617;48.836;9.172;2022-11-02T01:00:18;5.83;;;3.17;;
7150;SDS011;3617;48.836;9.172;2022-11-02T01:02:44;5.40;;;3.20;;
7150;SDS011;3617;48.836;9.172;2022-11-02T01:05:10;6.73;;;3.30;;
7150;SDS011;3617;48.836;9.172;2022-11-02T01:07:37;5.67;;;2.97;;
7150;SDS011;3617;48.836;9.172;2022-11-02T01:10:04;5.30;;;3.20;;
7150;SDS011;3617;48.836;9.172;2022-11-02T01:12:30;5.40;;;2.73;;
7150;SDS011;3617;48.836;9.172;2022-11-02T01:14:56;6.47;;;3.60;;
7150;SDS011;3617;48.836;9.172;2022-11-02T01:17:22;5.87;;;2.97;;
7150;SDS011;3617;48.836;9.172;2022-11-02T01:19:48;8.83;;;3.03;;
7150;SDS011;3617;48.836;9.172;2022-11-02T01:22:15;6.03;;;3.17;;
7150;SDS011;3617;48.836;9.172;2022-11-02T01:24:41;3.40;;;3.00;;
7150;SDS011;3617;48.836;9.172;2022-11-02T01:27:07;3.87;;;2.60;;
7150;SDS011;3617;48.836;9.172;2022-11-02T01:29:33;9.13;;;3.40;;
7150;SDS011;3617;48.836;9.172;2022-11-02T01:31:59;6.33;;;2.80;;
7150;SDS011;3617;48.836;9.172;2022-11-02T01:34:25;4.30;;;2.90;;
7150;SDS011;3617;48.836;9.172;2022-11-02T01:36:51;6.50;;;3.20;;
7150;SDS011;3617;48.836;9.172;2022-11-02T01:39:17;5.37;;;3.00;;
7150;SDS011;3617;48.836;9.172;2022-11-02T01:41:43;8.30;;;2.97;;
7150;SDS011;3617;48.836;9.172;2022-11-02T01:44:25;5.30;;;2.90;;
7150;SDS011;3617;48.836;9.172;2022-11-02T01:46:53;6.97;;;2.80;;
7150;SDS011;3617;48.836;9.172;2022-11-02T01:49:20;6.53;;;3.00;;
7150;SDS011;3617;48.836;9.172;2022-11-02T01:51:53;8.83;;;3.57;;
7150;SDS011;3617;48.836;9.172;2022-11-02T01:54:24;6.67;;;3.10;;
7150;SDS011;3617;48.836;9.172;2022-11-02T01:56:52;3.33;;;2.50;;
7150;SDS011;3617;48.836;9.172;2022-11-02T01:59:22;6.43;;;3.17;;
7150;SDS011;3617;48.836;9.172;2022-11-02T02:01:52;3.80;;;3.03;;
7150;SDS011;3617;48.836;9.172;2022-11-02T02:04:18;4.60;;;2.90;;
7150;SDS011;3617;48.836;9.172;2022-11-02T02:06:45;8.33;;;2.97;;
7150;SDS011;3617;48.836;9.172;2022-11-02T02:09:11;6.67;;;3.00;;
7150;SDS011;3617;48.836;9.172;2022-11-02T02:11:39;5.20;;;2.50;;
7150;SDS011;3617;48.836;9.172;2022-11-02T02:22:30;6.07;;;2.30;;
7150;SDS011;3617;48.836;9.172;2022-11-02T02:30:06;5.57;;;3.10;;
7150;SDS011;3617;48.836;9.172;2022-11-02T02:35:07;4.97;;;2.70;;
7150;SDS011;3617;48.836;9.172;2022-11-02T02:37:38;5.77;;;2.43;;
7150;SDS011;3617;48.836;9.172;2022-11-02T02:40:09;3.40;;;2.63;;
7150;SDS011;3617;48.836;9.172;2022-11-02T02:42:49;6.33;;;2.40;;
7150;SDS011;3617;48.836;9.172;2022-11-02T02:48:00;5.23;;;2.70;;
7150;SDS011;3617;48.836;9.172;2022-11-02T02:50:28;3.77;;;2.70;;
7150;SDS011;3617;48.836;9.172;2022-11-02T02:52:55;5.27;;;2.97;;
7150;SDS011;3617;48.836;9.172;2022-11-02T02:55:23;6.77;;;2.83;;
7150;SDS011;3617;48.836;9.172;2022-11-02T02:57:52;7.50;;;2.80;;
7150;SDS011;3617;48.836;9.172;2022-11-02T03:00:19;6.67;;;3.20;;
7150;SDS011;3617;48.836;9.172;2022-11-02T03:02:45;4.77;;;2.53;;
7150;SDS011;3617;48.836;9.172;2022-11-02T03:05:31;6.10;;;2.90;;
7150;SDS011;3617;48.836;9.172;2022-11-02T03:08:00;7.00;;;2.90;;
7150;SDS011;3617;48.836;9.172;2022-11-02T03:13:02;4.13;;;2.50;;
7150;SDS011;3617;48.836;9.172;2022-11-02T03:15:41;3.03;;;2.33;;
7150;SDS011;3617;48.836;9.172;2022-11-02T03:23:52;4.63;;;2.60;;
7150;SDS011;3617;48.836;9.172;2022-11-02T03:26:30;4.10;;;2.73;;
7150;SDS011;3617;48.836;9.172;2022-11-02T03:29:06;4.77;;;2.80;;
7150;SDS011;3617;48.836;9.172;2022-11-02T03:31:41;5.27;;;3.20;;
7150;SDS011;3617;48.836;9.172;2022-11-02T03:36:43;7.70;;;2.90;;
7150;SDS011;3617;48.836;9.172;2022-11-02T03:39:10;4.90;;;2.90;;
7150;SDS011;3617;48.836;9.172;2022-11-02T03:41:39;3.30;;;2.47;;
7150;SDS011;3617;48.836;9.172;2022-11-02T03:44:07;7.97;;;3.10;;
7150;SDS011;3617;48.836;9.172;2022-11-02T03:46:33;9.13;;;3.03;;
7150;SDS011;3617;48.836;9.172;2022-11-02T03:49:01;4.13;;;2.63;;
7150;SDS011;3617;48.836;9.172;2022-11-02T03:51:28;7.33;;;3.30;;
7150;SDS011;3617;48.836;9.172;2022-11-02T03:54:05;4.13;;;2.90;;
7150;SDS011;3617;48.836;9.172;2022-11-02T03:56:40;7.00;;;4.07;;
7150;SDS011;3617;48.836;9.172;2022-11-02T03:59:08;29.67;;;14.80;;
7150;SDS011;3617;48.836;9.172;2022-11-02T04:01:38;17.47;;;10.07;;
7150;SDS011;3617;48.836;9.172;2022-11-02T04:04:05;11.80;;;3.57;;
7150;SDS011;3617;48.836;9.172;2022-11-02T04:06:31;5.30;;;3.40;;
7150;SDS011;3617;48.836;9.172;2022-11-02T04:08:57;5.93;;;2.77;;
7150;SDS011;3617;48.836;9.172;2022-11-02T04:11:24;8.17;;;2.57;;
7150;SDS011;3617;48.836;9.172;2022-11-02T04:14:08;6.60;;;1.97;;
7150;SDS011;3617;48.836;9.172;2022-11-02T04:16:53;5.23;;;2.30;;
7150;SDS011;3617;48.836;9.172;2022-11-02T04:19:39;8.23;;;2.33;;
7150;SDS011;3617;48.836;9.172;2022-11-02T04:22:05;7.03;;;2.00;;
7150;SDS011;3617;48.836;9.172;2022-11-02T04:24:50;5.07;;;1.90;;
7150;SDS011;3617;48.836;9.172;2022-11-02T04:27:34;6.93;;;1.67;;
7150;SDS011;3617;48.836;9.172;2022-11-02T04:30:00;3.83;;;2.27;;
7150;SDS011;3617;48.836;9.172;2022-11-02T04:32:26;7.07;;;1.93;;
7150;SDS011;3617;48.836;9.172;2022-11-02T04:35:11;4.13;;;1.70;;
7150;SDS011;3617;48.836;9.172;2022-11-02T04:37:38;5.73;;;1.70;;
7150;SDS011;3617;48.836;9.172;2022-11-02T04:40:23;3.77;;;1.83;;
7150;SDS011;3617;48.836;9.172;2022-11-02T04:42:49;3.87;;;1.40;;
7150;SDS011;3617;48.836;9.172;2022-11-02T04:45:15;8.97;;;2.20;;
7150;SDS011;3617;48.836;9.172;2022-11-02T04:47:41;7.57;;;2.30;;
7150;SDS011;3617;48.836;9.172;2022-11-02T04:50:07;2.77;;;2.07;;
7150;SDS011;3617;48.836;9.172;2022-11-02T04:52:33;3.33;;;1.60;;
7150;SDS011;3617;48.836;9.172;2022-11-02T04:54:59;3.30;;;1.90;;
7150;SDS011;3617;48.836;9.172;2022-11-02T04:57:25;5.77;;;1.63;;
7150;SDS011;3617;48.836;9.172;2022-11-02T04:59:51;3.00;;;1.37;;
7150;SDS011;3617;48.836;9.172;2022-11-02T05:02:17;2.50;;;1.37;;
7150;SDS011;3617;48.836;9.172;2022-11-02T05:04:43;4.93;;;1.80;;
7150;SDS011;3617;48.836;9.172;2022-11-02T05:07:09;4.37;;;2.03;;
7150;SDS011;3617;48.836;9.172;2022-11-02T05:09:36;2.03;;;1.53;;
7150;SDS011;3617;48.836;9.172;2022-11-02T05:12:02;5.60;;;1.60;;
7150;SDS011;3617;48.836;9.172;2022-11-02T05:14:29;4.33;;;1.57;;
7150;SDS011;3617;48.836;9.172;2022-11-02T05:16:56;3.87;;;1.60;;
7150;SDS011;3617;48.836;9.172;2022-11-02T05:19:22;4.70;;;2.50;;
7150;SDS011;3617;48.836;9.172;2022-11-02T05:21:48;4.53;;;1.73;;
7150;SDS011;3617;48.836;9.172;2022-11-02T05:24:14;8.13;;;2.20;;
7150;SDS011;3617;48.836;9.172;2022-11-02T05:26:40;4.37;;;1.93;;
7150;SDS011;3617;48.836;9.172;2022-11-02T05:29:06;6.40;;;1.90;;
7150;SDS011;3617;48.836;9.172;2022-11-02T05:31:32;5.50;;;1.90;;
7150;SDS011;3617;48.836;9.172;2022-11-02T05:33:58;6.53;;;2.03;;
7150;SDS011;3617;48.836;9.172;2022-11-02T05:36:24;3.80;;;2.17;;
7150;SDS011;3617;48.836;9.172;2022-11-02T05:38:51;6.53;;;2.20;;
7150;SDS011;3617;48.836;9.172;2022-11-02T05:41:18;6.63;;;2.40;;
7150;SDS011;3617;48.836;9.172;2022-11-02T05:43:44;3.60;;;2.40;;
7150;SDS011;3617;48.836;9.172;2022-11-02T05:46:10;4.97;;;2.70;;
7150;SDS011;3617;48.836;9.172;2022-11-02T05:48:39;7.07;;;3.03;;
7150;SDS011;3617;48.836;9.172;2022-11-02T05:51:05;5.40;;;3.17;;
7150;SDS011;3617;48.836;9.172;2022-11-02T05:53:31;6.63;;;3.33;;
7150;SDS011;3617;48.836;9.172;2022-11-02T05:56:02;6.70;;;3.30;;
7150;SDS011;3617;48.836;9.172;2022-11-02T05:58:28;6.77;;;3.33;;
7150;SDS011;3617;48.836;9.172;2022-11-02T06:00:57;8.57;;;4.57;;
7150;SDS011;3617;48.836;9.172;2022-11-02T06:03:23;7.87;;;4.70;;
7150;SDS011;3617;48.836;9.172;2022-11-02T06:05:54;10.53;;;3.97;;
7150;SDS011;3617;48.836;9.172;2022-11-02T06:08:20;7.10;;;4.10;;
7150;SDS011;3617;48.836;9.172;2022-11-02T06:10:46;4.37;;;1.93;;
7150;SDS011;3617;48.836;9.172;2022-11-02T06:13:12;5.43;;;2.33;;
7150;SDS011;3617;48.836;9.172;2022-11-02T06:15:38;7.70;;;2.23;;
7150;SDS011;3617;48.836;9.172;2022-11-02T06:18:04;4.57;;;1.87;;
7150;SDS011;3617;48.836;9.172;2022-11-02T06:20:31;2.70;;;1.60;;
7150;SDS011;3617;48.836;9.172;2022-11-02T06:22:57;8.77;;;2.27;;
7150;SDS011;3617;48.836;9.172;2022-11-02T06:25:23;4.47;;;1.87;;
7150;SDS011;3617;48.836;9.172;2022-11-02T06:27:54;5.57;;;1.93;;
7150;SDS011;3617;48.836;9.172;2022-11-02T06:30:21;3.47;;;1.60;;
7150;SDS011;3617;48.836;9.172;2022-11-02T06:32:48;8.33;;;1.83;;
7150;SDS011;3617;48.836;9.172;2022-11-02T06:35:15;4.70;;;1.87;;
7150;SDS011;3617;48.836;9.172;2022-11-02T06:37:42;7.50;;;1.70;;
7150;SDS011;3617;48.836;9.172;2022-11-02T06:40:08;3.63;;;1.80;;
7150;SDS011;3617;48.836;9.172;2022-11-02T06:42:34;5.37;;;1.60;;
7150;SDS011;3617;48.836;9.172;2022-11-02T06:45:01;2.83;;;1.80;;
7150;SDS011;3617;48.836;9.172;2022-11-02T06:47:33;3.20;;;2.17;;
7150;SDS011;3617;48.836;9.172;2022-11-02T06:50:00;5.53;;;1.83;;
7150;SDS011;3617;48.836;9.172;2022-11-02T06:52:26;6.63;;;1.97;;
7150;SDS011;3617;48.836;9.172;2022-11-02T06:54:53;4.73;;;1.90;;
7150;SDS011;3617;48.836;9.172;2022-11-02T06:57:19;8.07;;;1.87;;
7150;SDS011;3617;48.836;9.172;2022-11-02T06:59:45;8.73;;;1.97;;
7150;SDS011;3617;48.836;9.172;2022-11-02T07:02:11;6.37;;;1.70;;
7150;SDS011;3617;48.836;9.172;2022-11-02T07:04:37;3.80;;;1.80;;
7150;SDS011;3617;48.836;9.172;2022-11-02T07:07:03;6.93;;;1.80;;
7150;SDS011;3617;48.836;9.172;2022-11-02T07:09:29;7.30;;;1.73;;
7150;SDS011;3617;48.836;9.172;2022-11-02T07:11:54;7.07;;;2.00;;
7150;SDS011;3617;48.836;9.172;2022-11-02T07:14:20;3.03;;;2.00;;
7150;SDS011;3617;48.836;9.172;2022-11-02T07:16:46;6.47;;;2.23;;
7150;SDS011;3617;48.836;9.172;2022-11-02T07:19:12;7.53;;;2.07;;
7150;SDS011;3617;48.836;9.172;2022-11-02T07:21:38;7.17;;;1.70;;
7150;SDS011;3617;48.836;9.172;2022-11-02T07:24:04;2.80;;;1.50;;
7150;SDS011;3617;48.836;9.172;2022-11-02T07:26:30;9.17;;;2.07;;
7150;SDS011;3617;48.836;9.172;2022-11-02T07:28:56;4.83;;;1.70;;
7150;SDS011;3617;48.836;9.172;2022-11-02T07:31:22;5.60;;;1.90;;
7150;SDS011;3617;48.836;9.172;2022-11-02T07:33:48;3.80;;;1.60;;
7150;SDS011;3617;48.836;9.172;2022-11-02T07:36:14;3.77;;;1.90;;
7150;SDS011;3617;48.836;9.172;2022-11-02T07:38:41;6.70;;;2.07;;
7150;SDS011;3617;48.836;9.172;2022-11-02T07:41:07;3.70;;;1.90;;
7150;SDS011;3617;48.836;9.172;2022-11-02T07:43:33;2.90;;;1.80;;
7150;SDS011;3617;48.836;9.172;2022-11-02T07:46:00;5.33;;;2.23;;
7150;SDS011;3617;48.836;9.172;2022-11-02T07:48:26;8.13;;;1.90;;
7150;SDS011;3617;48.836;9.172;2022-11-02T07:50:52;3.67;;;1.70;;
7150;SDS011;3617;48.836;9.172;2022-11-02T07:53:18;6.27;;;2.00;;
7150;SDS011;3617;48.836;9.172;2022-11-02T07:55:44;3.53;;;1.77;;
7150;SDS011;3617;48.836;9.172;2022-11-02T07:58:10;5.13;;;2.10;;
7150;SDS011;3617;48.836;9.172;2022-11-02T08:00:38;4.93;;;2.27;;
7150;SDS011;3617;48.836;9.172;2022-11-02T08:03:07;4.70;;;1.73;;
7150;SDS011;3617;48.836;9.172;2022-11-02T08:05:35;4.90;;;1.53;;
7150;SDS011;3617;48.836;9.172;2022-11-02T08:08:02;2.97;;;1.87;;
7150;SDS011;3617;48.836;9.172;2022-11-02T08:10:29;7.13;;;1.80;;
7150;SDS011;3617;48.836;9.172;2022-11-02T08:12:55;5.87;;;1.90;;
7150;SDS011;3617;48.836;9.172;2022-11-02T08:15:21;6.20;;;1.50;;
7150;SDS011;3617;48.836;9.172;2022-11-02T08:17:53;6.23;;;2.17;;
7150;SDS011;3617;48.836;9.172;2022-11-02T08:20:23;4.97;;;1.40;;
7150;SDS011;3617;48.836;9.172;2022-11-02T08:22:49;3.77;;;1.67;;
7150;SDS011;3617;48.836;9.172;2022-11-02T08:25:15;4.30;;;1.63;;
7150;SDS011;3617;48.836;9.172;2022-11-02T08:27:41;3.83;;;1.63;;
7150;SDS011;3617;48.836;9.172;2022-11-02T08:30:07;5.70;;;1.80;;
7150;SDS011;3617;48.836;9.172;2022-11-02T08:32:34;5.03;;;1.57;;
7150;SDS011;3617;48.836;9.172;2022-11-02T08:35:00;2.57;;;1.87;;
7150;SDS011;3617;48.836;9.172;2022-11-02T08:37:26;4.10;;;1.90;;
7150;SDS011;3617;48.836;9.172;2022-11-02T08:39:52;4.10;;;1.60;;
7150;SDS011;3617;48.836;9.172;2022-11-02T08:42:18;4.13;;;2.20;;
7150;SDS011;3617;48.836;9.172;2022-11-02T08:44:44;5.83;;;1.70;;
7150;SDS011;3617;48.836;9.172;2022-11-02T08:47:10;2.40;;;1.47;;
7150;SDS011;3617;48.836;9.172;2022-11-02T08:49:36;4.93;;;1.73;;
7150;SDS011;3617;48.836;9.172;2022-11-02T08:52:02;3.07;;;2.00;;
7150;SDS011;3617;48.836;9.172;2022-11-02T08:54:28;3.10;;;1.30;;
7150;SDS011;3617;48.836;9.172;2022-11-02T08:56:54;3.20;;;1.73;;
7150;SDS011;3617;48.836;9.172;2022-11-02T08:59:20;4.37;;;1.87;;
7150;SDS011;3617;48.836;9.172;2022-11-02T09:01:46;8.23;;;1.90;;
7150;SDS011;3617;48.836;9.172;2022-11-02T09:04:12;5.37;;;1.63;;
7150;SDS011;3617;48.836;9.172;2022-11-02T09:06:38;3.20;;;1.60;;
7150;SDS011;3617;48.836;9.172;2022-11-02T09:09:04;6.33;;;1.70;;
7150;SDS011;3617;48.836;9.172;2022-11-02T09:11:30;2.67;;;1.40;;
7150;SDS011;3617;48.836;9.172;2022-11-02T09:13:56;5.77;;;1.80;;
7150;SDS011;3617;48.836;9.172;2022-11-02T09:16:22;4.33;;;1.50;;
7150;SDS011;3617;48.836;9.172;2022-11-02T09:18:48;3.53;;;1.67;;
7150;SDS011;3617;48.836;9.172;2022-11-02T09:21:14;2.73;;;1.23;;
7150;SDS011;3617;48.836;9.172;2022-11-02T09:23:40;2.90;;;1.30;;
7150;SDS011;3617;48.836;9.172;2022-11-02T09:26:06;2.60;;;1.40;;
7150;SDS011;3617;48.836;9.172;2022-11-02T09:28:32;4.67;;;1.80;;
7150;SDS011;3617;48.836;9.172;2022-11-02T09:30:58;6.03;;;1.70;;
7150;SDS011;3617;48.836;9.172;2022-11-02T09:33:24;6.07;;;1.50;;
7150;SDS011;3617;48.836;9.172;2022-11-02T09:35:50;3.57;;;1.60;;
7150;SDS011;3617;48.836;9.172;2022-11-02T09:38:16;3.83;;;1.50;;
7150;SDS011;3617;48.836;9.172;2022-11-02T09:40:49;4.30;;;2.03;;
7150;SDS011;3617;48.836;9.172;2022-11-02T09:43:26;2.73;;;1.57;;
7150;SDS011;3617;48.836;9.172;2022-11-02T09:48:29;7.00;;;2.00;;
7150;SDS011;3617;48.836;9.172;2022-11-02T09:51:39;5.10;;;1.70;;
7150;SDS011;3617;48.836;9.172;2022-11-02T09:56:11;4.17;;;1.40;;
7150;SDS011;3617;48.836;9.172;2022-11-02T09:58:38;3.47;;;1.53;;
7150;SDS011;3617;48.836;9.172;2022-11-02T10:01:12;6.87;;;1.77;;
7150;SDS011;3617;48.836;9.172;2022-11-02T10:03:46;3.33;;;1.50;;
7150;SDS011;3617;48.836;9.172;2022-11-02T10:06:17;4.33;;;1.30;;
7150;SDS011;3617;48.836;9.172;2022-11-02T10:08:48;6.27;;;2.30;;
7150;SDS011;3617;48.836;9.172;2022-11-02T10:14:02;5.10;;;1.53;;
7150;SDS011;3617;48.836;9.172;2022-11-02T10:16:37;3.30;;;1.40;;
7150;SDS011;3617;48.836;9.172;2022-11-02T10:19:07;4.03;;;1.50;;
7150;SDS011;3617;48.836;9.172;2022-11-02T10:21:37;6.17;;;1.80;;
7150;SDS011;3617;48.836;9.172;2022-11-02T10:26:49;5.87;;;1.43;;
7150;SDS011;3617;48.836;9.172;2022-11-02T10:32:01;5.93;;;1.80;;
7150;SDS011;3617;48.836;9.172;2022-11-02T10:34:27;5.97;;;1.63;;
7150;SDS011;3617;48.836;9.172;2022-11-02T10:37:04;7.33;;;2.23;;
7150;SDS011;3617;48.836;9.172;2022-11-02T10:39:36;3.20;;;1.50;;
7150;SDS011;3617;48.836;9.172;2022-11-02T10:49:42;4.90;;;2.07;;
7150;SDS011;3617;48.836;9.172;2022-11-02T10:52:11;6.97;;;1.73;;
7150;SDS011;3617;48.836;9.172;2022-11-02T10:54:38;3.27;;;1.40;;
7150;SDS011;3617;48.836;9.172;2022-11-02T10:57:11;2.87;;;1.53;;
7150;SDS011;3617;48.836;9.172;2022-11-02T10:59:37;5.23;;;1.90;;
7150;SDS011;3617;48.836;9.172;2022-11-02T11:02:09;6.33;;;1.50;;
7150;SDS011;3617;48.836;9.172;2022-11-02T11:04:36;4.75;;;1.63;;
7150;SDS011;3617;48.836;9.172;2022-11-02T11:07:06;2.85;;;1.58;;
7150;SDS011;3617;48.836;9.172;2022-11-02T11:09:50;3.77;;;1.27;;
7150;SDS011;3617;48.836;9.172;2022-11-02T11:12:19;5.00;;;1.60;;
7150;SDS011;3617;48.836;9.172;2022-11-02T11:14:47;3.58;;;1.10;;
7150;SDS011;3617;48.836;9.172;2022-11-02T11:17:23;5.57;;;1.20;;
7150;SDS011;3617;48.836;9.172;2022-11-02T11:19:55;4.63;;;1.30;;
7150;SDS011;3617;48.836;9.172;2022-11-02T11:24:52;3.40;;;1.20;;
7150;SDS011;3617;48.836;9.172;2022-11-02T11:27:21;7.43;;;1.55;;
7150;SDS011;3617;48.836;9.172;2022-11-02T11:29:49;3.83;;;1.50;;
7150;SDS011;3617;48.836;9.172;2022-11-02T11:34:45;3.25;;;1.50;;
7150;SDS011;3617;48.836;9.172;2022-11-02T11:37:13;4.95;;;1.50;;
7150;SDS011;3617;48.836;9.172;2022-11-02T11:39:41;4.70;;;1.73;;
7150;SDS011;3617;48.836;9.172;2022-11-02T11:42:15;4.88;;;1.55;;
7150;SDS011;3617;48.836;9.172;2022-11-02T11:45:02;4.22;;;1.30;;
7150;SDS011;3617;48.836;9.172;2022-11-02T11:47:36;5.72;;;1.33;;
7150;SDS011;3617;48.836;9.172;2022-11-02T11:50:13;5.05;;;1.15;;
7150;SDS011;3617;48.836;9.172;2022-11-02T11:52:40;7.88;;;1.40;;
7150;SDS011;3617;48.836;9.172;2022-11-02T11:55:25;5.13;;;1.40;;
7150;SDS011;3617;48.836;9.172;2022-11-02T12:00:36;2.03;;;1.08;;
7150;SDS011;3617;48.836;9.172;2022-11-02T12:03:05;2.92;;;1.30;;
7150;SDS011;3617;48.836;9.172;2022-11-02T12:05:36;4.32;;;1.45;;
7150;SDS011;3617;48.836;9.172;2022-11-02T12:08:26;6.18;;;1.30;;
7150;SDS011;3617;48.836;9.172;2022-11-02T12:10:57;4.85;;;1.50;;
7150;SDS011;3617;48.836;9.172;2022-11-02T12:16:18;5.10;;;1.30;;
7150;SDS011;3617;48.836;9.172;2022-11-02T12:18:53;3.10;;;1.40;;
7150;SDS011;3617;48.836;9.172;2022-11-02T12:21:28;3.58;;;1.20;;
7150;SDS011;3617;48.836;9.172;2022-11-02T12:31:41;4.60;;;1.70;;
7150;SDS011;3617;48.836;9.172;2022-11-02T12:36:57;3.53;;;1.17;;
7150;SDS011;3617;48.836;9.172;2022-11-02T12:39:38;3.13;;;1.23;;
7150;SDS011;3617;48.836;9.172;2022-11-02T12:44:48;5.65;;;1.25;;
7150;SDS011;3617;48.836;9.172;2022-11-02T12:55:02;4.47;;;1.17;;
7150;SDS011;3617;48.836;9.172;2022-11-02T12:57:32;5.95;;;2.15;;
7150;SDS011;3617;48.836;9.172;2022-11-02T13:00:00;3.35;;;1.70;;
7150;SDS011;3617;48.836;9.172;2022-11-02T13:05:03;9.15;;;3.40;;
7150;SDS011;3617;48.836;9.172;2022-11-02T13:12:42;3.13;;;1.50;;
7150;SDS011;3617;48.836;9.172;2022-11-02T13:15:12;2.00;;;1.15;;
7150;SDS011;3617;48.836;9.172;2022-11-02T13:17:43;2.88;;;1.40;;
7150;SDS011;3617;48.836;9.172;2022-11-02T13:20:20;5.50;;;1.65;;
7150;SDS011;3617;48.836;9.172;2022-11-02T13:22:49;4.18;;;1.40;;
7150;SDS011;3617;48.836;9.172;2022-11-02T13:25:25;3.30;;;1.40;;
7150;SDS011;3617;48.836;9.172;2022-11-02T13:27:53;7.20;;;1.70;;
7150;SDS011;3617;48.836;9.172;2022-11-02T13:30:19;5.80;;;1.77;;
7150;SDS011;3617;48.836;9.172;2022-11-02T13:32:57;4.43;;;1.30;;
7150;SDS011;3617;48.836;9.172;2022-11-02T13:35:38;5.90;;;1.50;;
7150;SDS011;3617;48.836;9.172;2022-11-02T13:40:41;3.90;;;1.53;;
7150;SDS011;3617;48.836;9.172;2022-11-02T13:45:41;6.63;;;1.80;;
7150;SDS011;3617;48.836;9.172;2022-11-02T13:50:56;4.40;;;1.50;;
7150;SDS011;3617;48.836;9.172;2022-11-02T13:53:25;6.10;;;1.63;;
7150;SDS011;3617;48.836;9.172;2022-11-02T13:55:56;4.97;;;1.30;;
7150;SDS011;3617;48.836;9.172;2022-11-02T13:58:29;3.47;;;1.67;;
7150;SDS011;3617;48.836;9.172;2022-11-02T14:01:00;2.70;;;1.43;;
7150;SDS011;3617;48.836;9.172;2022-11-02T14:03:28;8.17;;;1.97;;
7150;SDS011;3617;48.836;9.172;2022-11-02T14:05:57;7.50;;;1.63;;
7150;SDS011;3617;48.836;9.172;2022-11-02T14:16:12;4.57;;;1.60;;
7150;SDS011;3617;48.836;9.172;2022-11-02T14:21:44;8.13;;;2.00;;
7150;SDS011;3617;48.836;9.172;2022-11-02T14:26:55;8.77;;;1.33;;
7150;SDS011;3617;48.836;9.172;2022-11-02T14:32:07;5.13;;;1.60;;
7150;SDS011;3617;48.836;9.172;2022-11-02T14:35:21;5.67;;;1.60;;
7150;SDS011;3617;48.836;9.172;2022-11-02T14:40:32;6.83;;;1.50;;
7150;SDS011;3617;48.836;9.172;2022-11-02T14:43:13;2.63;;;1.60;;
7150;SDS011;3617;48.836;9.172;2022-11-02T14:46:05;6.40;;;1.53;;
7150;SDS011;3617;48.836;9.172;2022-11-02T14:48:41;5.90;;;1.47;;
7150;SDS011;3617;48.836;9.172;2022-11-02T14:51:10;7.70;;;1.70;;
7150;SDS011;3617;48.836;9.172;2022-11-02T14:53:38;3.43;;;1.60;;
7150;SDS011;3617;48.836;9.172;2022-11-02T14:56:04;5.23;;;1.73;;
7150;SDS011;3617;48.836;9.172;2022-11-02T14:58:34;2.97;;;1.50;;
7150;SDS011;3617;48.836;9.172;2022-11-02T15:01:02;4.60;;;1.67;;
7150;SDS011;3617;48.836;9.172;2022-11-02T15:03:33;5.33;;;1.40;;
7150;SDS011;3617;48.836;9.172;2022-11-02T15:08:51;5.53;;;1.47;;
7150;SDS011;3617;48.836;9.172;2022-11-02T15:14:18;5.00;;;1.50;;
7150;SDS011;3617;48.836;9.172;2022-11-02T15:16:49;3.47;;;1.20;;
7150;SDS011;3617;48.836;9.172;2022-11-02T15:19:33;6.80;;;1.47;;
7150;SDS011;3617;48.836;9.172;2022-11-02T15:24:45;4.53;;;1.60;;
7150;SDS011;3617;48.836;9.172;2022-11-02T15:27:12;8.27;;;1.67;;
7150;SDS011;3617;48.836;9.172;2022-11-02T15:29:42;4.63;;;1.70;;
7150;SDS011;3617;48.836;9.172;2022-11-02T15:32:12;3.43;;;1.30;;
7150;SDS011;3617;48.836;9.172;2022-11-02T15:34:41;5.53;;;1.83;;
7150;SDS011;3617;48.836;9.172;2022-11-02T15:37:11;8.77;;;1.80;;
7150;SDS011;3617;48.836;9.172;2022-11-02T15:39:46;5.53;;;1.83;;
7150;SDS011;3617;48.836;9.172;2022-11-02T15:42:14;3.43;;;1.63;;
7150;SDS011;3617;48.836;9.172;2022-11-02T15:44:58;5.17;;;2.17;;
7150;SDS011;3617;48.836;9.172;2022-11-02T15:47:35;5.63;;;1.47;;
7150;SDS011;3617;48.836;9.172;2022-11-02T15:52:47;4.90;;;1.70;;
7150;SDS011;3617;48.836;9.172;2022-11-02T15:55:20;7.83;;;2.00;;
7150;SDS011;3617;48.836;9.172;2022-11-02T16:00:32;3.90;;;1.70;;
7150;SDS011;3617;48.836;9.172;2022-11-02T16:03:02;6.13;;;1.70;;
7150;SDS011;3617;48.836;9.172;2022-11-02T16:05:50;5.27;;;1.73;;
7150;SDS011;3617;48.836;9.172;2022-11-02T16:08:22;9.97;;;2.50;;
7150;SDS011;3617;48.836;9.172;2022-11-02T16:10:49;9.00;;;3.10;;
7150;SDS011;3617;48.836;9.172;2022-11-02T16:13:17;13.63;;;3.90;;
7150;SDS011;3617;48.836;9.172;2022-11-02T16:15:44;8.47;;;3.33;;
7150;SDS011;3617;48.836;9.172;2022-11-02T16:21:07;4.50;;;2.53;;
7150;SDS011;3617;48.836;9.172;2022-11-02T16:23:36;5.77;;;2.60;;
7150;SDS011;3617;48.836;9.172;2022-11-02T16:26:03;9.43;;;3.30;;
7150;SDS011;3617;48.836;9.172;2022-11-02T16:28:33;8.93;;;2.97;;
7150;SDS011;3617;48.836;9.172;2022-11-02T16:31:12;8.53;;;2.63;;
7150;SDS011;3617;48.836;9.172;2022-11-02T16:33:43;7.27;;;2.97;;
7150;SDS011;3617;48.836;9.172;2022-11-02T16:36:10;6.53;;;3.00;;
7150;SDS011;3617;48.836;9.172;2022-11-02T16:38:38;7.53;;;2.60;;
7150;SDS011;3617;48.836;9.172;2022-11-02T16:41:11;10.20;;;2.40;;
7150;SDS011;3617;48.836;9.172;2022-11-02T16:43:41;4.40;;;2.53;;
7150;SDS011;3617;48.836;9.172;2022-11-02T16:46:08;7.37;;;2.73;;
7150;SDS011;3617;48.836;9.172;2022-11-02T16:48:34;8.53;;;3.40;;
7150;SDS011;3617;48.836;9.172;2022-11-02T16:51:01;6.00;;;3.07;;
7150;SDS011;3617;48.836;9.172;2022-11-02T16:53:28;6.67;;;2.63;;
7150;SDS011;3617;48.836;9.172;2022-11-02T16:55:55;9.13;;;3.23;;
7150;SDS011;3617;48.836;9.172;2022-11-02T16:58:25;7.07;;;3.03;;
7150;SDS011;3617;48.836;9.172;2022-11-02T17:03:18;9.03;;;3.70;;
7150;SDS011;3617;48.836;9.172;2022-11-02T17:05:46;7.27;;;3.60;;
7150;SDS011;3617;48.836;9.172;2022-11-02T17:08:48;8.90;;;3.70;;
7150;SDS011;3617;48.836;9.172;2022-11-02T17:11:06;13.33;;;4.20;;
7150;SDS011;3617;48.836;9.172;2022-11-02T17:13:37;9.20;;;4.60;;
7150;SDS011;3617;48.836;9.172;2022-11-02T17:16:09;8.77;;;4.37;;
7150;SDS011;3617;48.836;9.172;2022-11-02T17:18:36;11.23;;;5.37;;
7150;SDS011;3617;48.836;9.172;2022-11-02T17:23:38;13.67;;;5.23;;
7150;SDS011;3617;48.836;9.172;2022-11-02T17:28:49;11.67;;;5.40;;
7150;SDS011;3617;48.836;9.172;2022-11-02T17:31:37;14.97;;;5.10;;
7150;SDS011;3617;48.836;9.172;2022-11-02T17:34:08;11.97;;;5.63;;
7150;SDS011;3617;48.836;9.172;2022-11-02T17:36:41;12.60;;;5.83;;
7150;SDS011;3617;48.836;9.172;2022-11-02T17:39:09;10.83;;;5.37;;
7150;SDS011;3617;48.836;9.172;2022-11-02T17:41:36;10.73;;;5.20;;
7150;SDS011;3617;48.836;9.172;2022-11-02T17:44:20;15.83;;;6.30;;
7150;SDS011;3617;48.836;9.172;2022-11-02T17:46:46;12.53;;;5.70;;
7150;SDS011;3617;48.836;9.172;2022-11-02T17:49:12;17.13;;;6.03;;